Terminal Aerodrome Forecast
Issued by NWS Mt. Holly, NJ

Home | Current Version | Previous Version | Text Only | Print | Product List | Glossary On
Versions: 1 2 3 4 5 6 7 8 9 10 11 12 13 14 15 16 17 18 19 20 21 22 23 24 25 26 27
000
FTUS41 KPHI 242106 AAA
TAFPHL
TAF AMD
KPHL 242106Z 2421/2524 22015KT P6SM SCT090 BKN250
     FM242300 22009KT P6SM OVC250
     FM250200 22005KT P6SM BKN100 WS020/23035KT
     FM250900 25009KT P6SM BKN100
     FM252200 31005KT P6SM OVC020=

USA.gov is the U.S. government's official web portal to all federal, state and local government web resources and services.